createdAt,value
2022-12-23T00:01:14.669Z,76.77
2022-12-23T00:03:02.098Z,84.63
2022-12-23T00:06:37.177Z,81.55
2022-12-23T00:08:24.957Z,79.38
2022-12-23T00:10:12.613Z,72.90
2022-12-23T00:12:18.556Z,65.22
2022-12-23T00:14:24.171Z,65.65
2022-12-23T00:16:14.229Z,61.13
2022-12-23T00:18:01.572Z,62.65
2022-12-23T00:19:48.692Z,62.45
2022-12-23T00:21:36.055Z,59.45
2022-12-23T00:23:23.186Z,62.53
2022-12-23T00:25:11.624Z,61.65
2022-12-23T00:26:59.045Z,69.97
2022-12-23T00:28:46.456Z,59.88
2022-12-23T00:30:33.717Z,59.38
2022-12-23T00:32:21.160Z,75.53
2022-12-23T00:34:09.739Z,75.78
2022-12-23T00:35:57.376Z,94.95
2022-12-23T00:39:54.812Z,62.80
2022-12-23T00:42:01.093Z,63.35
2022-12-23T00:43:48.493Z,64.22
2022-12-23T00:45:35.831Z,73.67
2022-12-23T00:47:41.710Z,67.32
2022-12-23T00:49:44.321Z,66.72
2022-12-23T00:51:31.580Z,56.40
2022-12-23T00:53:19.198Z,55.33
2022-12-23T00:56:54.284Z,54.58
2022-12-23T00:58:41.461Z,62.17
2022-12-23T01:00:47.458Z,65.95
2022-12-23T01:02:58.039Z,66.35
2022-12-23T01:05:03.957Z,63.95
2022-12-23T01:06:51.400Z,65.95
2022-12-23T01:08:39.036Z,65.75
2022-12-23T01:10:26.252Z,68.47
2022-12-23T01:12:14.117Z,73.70
2022-12-23T01:14:01.567Z,70.43
2022-12-23T01:15:48.687Z,76.82
2022-12-23T01:17:36.104Z,73.97
2022-12-23T01:19:23.559Z,74.32
2022-12-23T01:21:11.167Z,84.28
2022-12-23T01:22:58.589Z,82.57
2022-12-23T01:24:45.776Z,92.25
2022-12-23T01:26:32.875Z,93.40
2022-12-23T01:28:20.267Z,103.93
2022-12-23T01:30:08.135Z,109.60
2022-12-23T01:33:42.582Z,91.43
2022-12-23T01:35:29.770Z,93.53
2022-12-23T01:37:17.666Z,84.68
2022-12-23T01:39:05.431Z,83.57
2022-12-23T01:40:52.599Z,76.82
2022-12-23T01:42:46.675Z,76.22
2022-12-23T01:44:55.017Z,74.55
2022-12-23T01:46:42.166Z,75.82
2022-12-23T01:48:29.324Z,78.07
2022-12-23T01:50:19.743Z,77.68
2022-12-23T01:52:07.029Z,74.85
2022-12-23T01:53:59.361Z,69.90
2022-12-23T01:55:52.068Z,75.03
2022-12-23T01:57:42.963Z,67.63
2022-12-23T01:59:50.287Z,64.68
2022-12-23T02:01:56.636Z,71.05
2022-12-23T02:03:46.311Z,70.22
2022-12-23T02:05:34.611Z,75.15
2022-12-23T02:07:40.930Z,74.65
2022-12-23T02:09:29.839Z,79.75
2022-12-23T02:11:36.231Z,76.47
2022-12-23T02:14:08.319Z,76.78
2022-12-23T02:16:19.063Z,76.40
2022-12-23T02:18:20.121Z,81.93
2022-12-23T02:20:36.974Z,76.88
2022-12-23T02:23:02.336Z,90.63
2022-12-23T02:25:02.711Z,89.90
2022-12-23T02:27:08.160Z,79.18
2022-12-23T02:29:14.229Z,69.68
2022-12-23T02:31:10.678Z,72.82
2022-12-23T02:33:09.372Z,73.10
2022-12-23T02:35:33.579Z,69.22
2022-12-23T02:37:41.583Z,68.55
2022-12-23T02:39:59.082Z,68.95
2022-12-23T02:41:58.996Z,67.88
2022-12-23T02:44:03.552Z,67.60
2022-12-23T02:46:02.825Z,68.50
2022-12-23T02:47:58.148Z,73.47
2022-12-23T02:49:52.782Z,64.63
2022-12-23T02:51:45.667Z,65.22
2022-12-23T02:53:38.024Z,68.40
2022-12-23T02:55:38.171Z,70.10
2022-12-23T02:57:32.328Z,60.90
2022-12-23T02:59:24.390Z,64.88
2022-12-23T03:01:15.400Z,57.83
2022-12-23T03:03:03.317Z,64.70
2022-12-23T03:04:50.514Z,54.25
2022-12-23T03:06:44.138Z,57.25
2022-12-23T03:08:39.469Z,58.47
2022-12-23T03:10:26.560Z,55.42
2022-12-23T03:12:28.766Z,54.65
2022-12-23T03:14:39.125Z,54.38
2022-12-23T03:16:50.226Z,58.55
2022-12-23T03:18:40.809Z,54.55
2022-12-23T03:20:48.823Z,55.53
2022-12-23T03:22:56.206Z,61.35
2022-12-23T03:24:50.069Z,71.18
2022-12-23T03:26:42.985Z,84.82
2022-12-23T03:28:41.198Z,85.93
2022-12-23T03:30:29.975Z,80.80
2022-12-23T03:32:18.552Z,79.15
2022-12-23T03:34:16.536Z,98.38
2022-12-23T03:36:28.703Z,83.18
2022-12-23T03:38:19.040Z,83.72
2022-12-23T03:40:18.608Z,70.00
2022-12-23T03:42:22.687Z,70.53
2022-12-23T03:44:19.186Z,79.60
2022-12-23T03:46:18.199Z,98.90
2022-12-23T03:48:10.002Z,89.93
2022-12-23T03:50:03.672Z,105.85
2022-12-23T03:52:21.649Z,125.60
2022-12-23T03:54:15.069Z,97.78
2022-12-23T03:56:14.353Z,83.82
2022-12-23T03:58:03.743Z,102.28
2022-12-23T03:59:51.599Z,122.13
2022-12-23T04:02:03.630Z,97.22
2022-12-23T04:04:11.201Z,92.93
2022-12-23T04:06:02.044Z,83.93
2022-12-23T04:08:04.178Z,80.25
2022-12-23T04:09:54.987Z,90.57
2022-12-23T04:11:42.578Z,127.50
2022-12-23T04:13:30.275Z,105.88
2022-12-23T04:15:25.823Z,94.28
2022-12-23T04:17:13.393Z,114.30
2022-12-23T04:19:00.607Z,100.63
2022-12-23T04:20:47.752Z,102.10
2022-12-23T04:22:35.189Z,117.20
2022-12-23T04:24:22.324Z,114.90
2022-12-23T04:26:09.514Z,101.13
2022-12-23T04:27:56.930Z,97.25
2022-12-23T04:29:44.523Z,155.98
2022-12-23T04:31:32.102Z,139.07
2022-12-23T04:33:19.527Z,102.75
2022-12-23T04:35:06.875Z,108.90
2022-12-23T04:36:54.092Z,91.40
2022-12-23T04:38:41.428Z,108.18
2022-12-23T04:40:28.548Z,110.07
2022-12-23T04:42:15.659Z,108.28
2022-12-23T04:44:03.102Z,123.38
2022-12-23T04:45:51.898Z,93.07
2022-12-23T04:47:39.129Z,126.20
2022-12-23T04:49:26.502Z,115.72
2022-12-23T04:51:13.627Z,138.40
2022-12-23T04:53:00.820Z,144.52
2022-12-23T04:54:48.195Z,100.68
2022-12-23T04:56:35.298Z,98.57
2022-12-23T04:58:24.203Z,98.72
2022-12-23T05:00:12.196Z,80.07
2022-12-23T05:01:59.496Z,88.93
2022-12-23T05:03:46.962Z,86.63
2022-12-23T05:05:34.595Z,101.35
2022-12-23T05:07:21.708Z,102.50
2022-12-23T05:09:09.134Z,103.78
2022-12-23T05:10:57.144Z,104.50
2022-12-23T05:12:44.245Z,88.18
2022-12-23T05:14:31.362Z,77.63
2022-12-23T05:16:19.488Z,87.25
2022-12-23T05:18:06.637Z,87.25
2022-12-23T05:19:53.835Z,93.07
2022-12-23T05:21:41.243Z,93.18
2022-12-23T05:23:28.402Z,97.60
2022-12-23T05:25:15.641Z,104.43
2022-12-23T05:27:03.011Z,97.13
2022-12-23T05:28:50.301Z,114.43
2022-12-23T05:30:37.632Z,98.00
2022-12-23T05:32:25.590Z,120.38
2022-12-23T05:34:12.743Z,112.63
2022-12-23T05:36:00.417Z,124.00
2022-12-23T05:39:35.134Z,116.43
2022-12-23T05:41:22.259Z,96.22
2022-12-23T05:43:09.655Z,106.50
2022-12-23T05:44:56.739Z,98.93
2022-12-23T05:46:44.306Z,96.50
2022-12-23T05:48:32.007Z,96.70
2022-12-23T05:50:19.216Z,114.15
2022-12-23T05:52:09.081Z,104.63
2022-12-23T05:53:56.444Z,106.03
2022-12-23T05:55:43.676Z,113.90
2022-12-23T05:57:32.243Z,101.70
2022-12-23T05:59:19.662Z,113.97
2022-12-23T06:01:06.811Z,91.75
2022-12-23T06:02:54.599Z,102.97
2022-12-23T06:04:42.400Z,96.10
2022-12-23T06:06:29.643Z,131.20
2022-12-23T06:08:16.726Z,95.97
2022-12-23T06:10:05.691Z,112.72
2022-12-23T06:11:52.830Z,118.65
2022-12-23T06:13:40.008Z,116.40
2022-12-23T06:15:27.511Z,100.82
2022-12-23T06:17:14.640Z,98.13
2022-12-23T06:19:02.664Z,81.72
2022-12-23T06:20:50.018Z,74.78
2022-12-23T06:22:37.128Z,82.23
2022-12-23T06:24:24.269Z,79.97
2022-12-23T06:26:11.877Z,81.18
2022-12-23T06:27:59.559Z,73.88
2022-12-23T06:29:46.815Z,76.05
2022-12-23T06:31:35.264Z,97.55
2022-12-23T06:33:23.179Z,66.90
2022-12-23T06:35:10.538Z,111.28
2022-12-23T06:36:58.662Z,90.22
2022-12-23T06:38:46.054Z,69.15
2022-12-23T06:40:33.546Z,65.88
2022-12-23T06:42:21.162Z,57.65
2022-12-23T06:44:09.428Z,61.58
2022-12-23T06:45:57.180Z,63.72
2022-12-23T06:47:45.425Z,68.93
2022-12-23T06:49:32.874Z,68.43
2022-12-23T06:51:20.221Z,67.82
2022-12-23T06:53:08.095Z,62.10
2022-12-23T06:54:55.291Z,68.95
2022-12-23T06:56:42.930Z,66.35
2022-12-23T06:58:31.163Z,58.40
2022-12-23T07:00:18.692Z,51.58
2022-12-23T07:02:06.642Z,56.38
2022-12-23T07:03:54.425Z,52.17
2022-12-23T07:05:42.140Z,54.17
2022-12-23T07:07:32.279Z,55.45
2022-12-23T07:09:19.965Z,53.10
2022-12-23T07:11:07.374Z,56.00
2022-12-23T07:12:54.722Z,64.43
2022-12-23T07:14:42.592Z,58.45
2022-12-23T07:16:29.752Z,55.08
2022-12-23T07:18:17.162Z,51.72
2022-12-23T07:20:05.772Z,52.67
2022-12-23T07:21:53.181Z,60.35
2022-12-23T07:23:40.380Z,45.28
2022-12-23T07:25:28.172Z,45.05
2022-12-23T07:27:15.765Z,52.03
2022-12-23T07:29:04.491Z,51.72
2022-12-23T07:30:52.089Z,51.13
2022-12-23T07:32:39.568Z,50.55
2022-12-23T07:34:27.328Z,42.40
2022-12-23T07:36:15.441Z,43.30
2022-12-23T07:38:03.096Z,51.80
2022-12-23T07:39:50.359Z,76.22
2022-12-23T07:41:37.840Z,48.03
2022-12-23T07:43:27.114Z,72.63
2022-12-23T07:45:14.613Z,77.97
2022-12-23T07:48:49.645Z,49.80
2022-12-23T07:50:37.437Z,49.10
2022-12-23T07:54:14.159Z,42.30
2022-12-23T07:56:01.984Z,49.72
2022-12-23T07:57:51.175Z,49.28
2022-12-23T07:59:38.431Z,46.25
2022-12-23T08:01:25.807Z,45.50
2022-12-23T08:03:13.549Z,43.10
2022-12-23T08:05:01.008Z,50.88
2022-12-23T08:06:48.590Z,41.83
2022-12-23T08:10:23.658Z,47.45
2022-12-23T08:12:11.358Z,48.80
2022-12-23T08:13:59.119Z,44.35
2022-12-23T08:15:46.471Z,42.95
2022-12-23T08:17:34.497Z,42.22
2022-12-23T08:19:22.167Z,41.13
2022-12-23T08:21:14.934Z,40.38
2022-12-23T08:23:02.584Z,38.80
2022-12-23T08:26:37.270Z,34.40
2022-12-23T08:28:24.440Z,44.20
2022-12-23T08:30:12.390Z,36.85
2022-12-23T08:32:00.373Z,39.70
2022-12-23T08:33:50.126Z,40.20
2022-12-23T08:35:37.668Z,39.95
2022-12-23T08:37:25.137Z,41.25
2022-12-23T08:39:12.798Z,39.35
2022-12-23T08:41:00.407Z,39.90
2022-12-23T08:42:47.813Z,42.60
2022-12-23T08:44:35.373Z,43.15
2022-12-23T08:46:23.085Z,43.20
2022-12-23T08:48:10.917Z,36.03
2022-12-23T08:49:58.389Z,39.13
2022-12-23T08:51:46.938Z,41.75
2022-12-23T08:53:35.879Z,39.58
2022-12-23T08:55:23.317Z,40.40
2022-12-23T08:57:10.892Z,35.88
2022-12-23T08:58:58.402Z,41.78
2022-12-23T09:00:45.847Z,54.40
2022-12-23T09:02:34.050Z,53.38
2022-12-23T09:04:21.515Z,42.83
2022-12-23T09:06:21.881Z,45.95
2022-12-23T09:08:12.519Z,45.63
2022-12-23T09:09:59.814Z,47.05
2022-12-23T09:11:47.439Z,43.03
2022-12-23T09:13:36.057Z,50.30
2022-12-23T09:15:23.516Z,40.97
2022-12-23T09:17:10.918Z,40.78
2022-12-23T09:18:58.633Z,45.28
2022-12-23T09:20:46.032Z,50.38
2022-12-23T09:22:33.980Z,62.25
2022-12-23T09:24:21.488Z,57.63
2022-12-23T09:26:12.182Z,64.75
2022-12-23T09:27:59.622Z,59.20
2022-12-23T09:29:47.078Z,45.88
2022-12-23T09:31:37.343Z,48.75
2022-12-23T09:33:25.153Z,40.47
2022-12-23T09:35:12.599Z,37.40
2022-12-23T09:36:59.689Z,34.40
2022-12-23T09:38:47.393Z,39.20
2022-12-23T09:40:37.874Z,49.78
2022-12-23T09:42:33.923Z,47.13
2022-12-23T09:44:38.626Z,51.03
2022-12-23T09:46:35.132Z,85.55
2022-12-23T09:48:26.781Z,51.50
2022-12-23T09:50:16.889Z,39.90
2022-12-23T09:52:06.263Z,38.67
2022-12-23T09:54:02.371Z,37.08
2022-12-23T09:56:28.371Z,34.00
2022-12-23T09:58:34.279Z,34.92
2022-12-23T10:00:22.824Z,33.03
2022-12-23T10:02:30.468Z,38.67
2022-12-23T10:04:34.652Z,36.03
2022-12-23T10:06:28.216Z,42.15
2022-12-23T10:08:24.211Z,48.58
2022-12-23T10:10:21.564Z,49.53
2022-12-23T10:12:40.612Z,50.65
2022-12-23T10:14:31.471Z,47.35
2022-12-23T10:16:20.483Z,51.50
2022-12-23T10:18:20.313Z,37.22
2022-12-23T10:20:18.688Z,32.03
2022-12-23T10:22:46.651Z,64.00
2022-12-23T10:24:47.016Z,52.25
2022-12-23T10:26:47.112Z,55.25
2022-12-23T10:28:34.525Z,48.40
2022-12-23T10:33:28.669Z,39.65
2022-12-23T10:35:37.461Z,42.75
2022-12-23T10:37:44.292Z,49.40
2022-12-23T10:39:44.873Z,38.75
2022-12-23T10:41:40.073Z,44.45
2022-12-23T10:43:49.290Z,47.58
2022-12-23T10:45:54.367Z,51.97
2022-12-23T10:47:56.616Z,35.90
2022-12-23T10:50:12.388Z,38.30
2022-12-23T10:52:15.476Z,50.20
2022-12-23T10:54:22.992Z,44.40
2022-12-23T10:56:10.705Z,44.33
2022-12-23T10:58:06.811Z,47.85
2022-12-23T10:59:53.979Z,48.85
2022-12-23T11:01:43.926Z,42.45
2022-12-23T11:03:39.977Z,41.80
2022-12-23T11:05:29.971Z,49.38
2022-12-23T11:09:40.145Z,45.08
2022-12-23T11:12:04.677Z,51.60
2022-12-23T11:13:52.496Z,42.80
2022-12-23T11:15:42.841Z,32.20
2022-12-23T11:17:33.297Z,45.65
2022-12-23T11:19:20.729Z,56.70
2022-12-23T11:21:14.596Z,57.50
2022-12-23T11:23:03.632Z,55.47
2022-12-23T11:24:51.831Z,56.63
2022-12-23T11:26:40.149Z,47.40
2022-12-23T11:28:28.046Z,54.78
2022-12-23T11:30:19.473Z,49.88
2022-12-23T11:32:28.682Z,53.35
2022-12-23T11:34:19.249Z,43.08
2022-12-23T11:36:08.343Z,50.33
2022-12-23T11:37:57.388Z,33.53
2022-12-23T11:39:46.733Z,56.22
2022-12-23T11:41:47.744Z,55.47
2022-12-23T11:43:35.339Z,82.18
2022-12-23T11:45:26.460Z,69.78
2022-12-23T11:47:22.838Z,111.60
2022-12-23T11:49:23.306Z,93.15
2022-12-23T11:51:11.175Z,88.05
2022-12-23T11:53:12.069Z,80.03
2022-12-23T11:55:04.170Z,81.00
2022-12-23T11:56:53.219Z,76.75
2022-12-23T11:58:54.812Z,94.03
2022-12-23T12:00:55.555Z,97.20
2022-12-23T12:02:46.191Z,90.82
2022-12-23T12:04:35.826Z,113.32
2022-12-23T12:06:23.760Z,77.88
2022-12-23T12:08:14.921Z,75.65
2022-12-23T12:10:03.372Z,76.50
2022-12-23T12:12:15.721Z,72.18
2022-12-23T12:14:05.950Z,72.13
2022-12-23T12:16:22.919Z,53.38
2022-12-23T12:18:14.794Z,68.53
2022-12-23T12:20:14.861Z,65.43
2022-12-23T12:22:12.772Z,81.53
2022-12-23T12:26:17.692Z,50.08
2022-12-23T12:28:09.089Z,57.95
2022-12-23T12:30:02.144Z,77.95
2022-12-23T12:31:56.914Z,55.50
2022-12-23T12:34:11.874Z,64.28
2022-12-23T12:36:23.618Z,43.28
2022-12-23T12:38:23.262Z,36.08
2022-12-23T12:40:40.310Z,72.88
2022-12-23T12:42:42.389Z,46.65
2022-12-23T12:44:55.854Z,60.15
2022-12-23T12:47:28.121Z,55.72
2022-12-23T12:49:20.226Z,67.35
2022-12-23T12:51:17.327Z,47.17
2022-12-23T12:53:14.229Z,43.38
2022-12-23T12:55:34.034Z,58.83
2022-12-23T12:57:24.120Z,66.40
2022-12-23T12:59:18.091Z,64.80
2022-12-23T13:01:24.730Z,53.30
2022-12-23T13:03:47.866Z,54.72
2022-12-23T13:05:54.667Z,59.55
2022-12-23T13:08:05.838Z,50.90
2022-12-23T13:10:02.565Z,52.95
2022-12-23T13:12:10.608Z,62.95
2022-12-23T13:14:26.021Z,55.05
2022-12-23T13:16:31.460Z,58.75
2022-12-23T13:18:34.188Z,51.90
2022-12-23T13:20:21.452Z,77.18
2022-12-23T13:22:13.271Z,76.35
2022-12-23T13:24:20.579Z,145.55
2022-12-23T13:26:30.888Z,67.32
2022-12-23T13:28:48.492Z,47.03
2022-12-23T13:30:46.498Z,50.28
2022-12-23T13:35:01.709Z,55.28
2022-12-23T13:37:01.876Z,76.93
2022-12-23T13:39:13.344Z,66.22
2022-12-23T13:41:12.560Z,66.68
2022-12-23T13:43:06.704Z,58.95
2022-12-23T13:44:55.665Z,44.70
2022-12-23T13:46:48.803Z,44.20
2022-12-23T13:49:02.800Z,40.58
2022-12-23T13:51:01.650Z,40.28
2022-12-23T13:53:15.234Z,43.10
2022-12-23T13:55:05.709Z,62.08
2022-12-23T13:57:03.975Z,57.83
2022-12-23T13:58:52.173Z,38.25
2022-12-23T14:00:43.122Z,33.22
2022-12-23T14:02:37.475Z,36.78
2022-12-23T14:04:36.988Z,32.75
2022-12-23T14:06:25.035Z,36.65
2022-12-23T14:08:26.119Z,32.83
2022-12-23T14:10:22.679Z,38.28
2022-12-23T14:12:21.036Z,54.80
2022-12-23T14:14:19.955Z,45.22
2022-12-23T14:16:30.884Z,41.05
2022-12-23T14:18:46.702Z,50.22
2022-12-23T14:20:49.854Z,104.78
2022-12-23T14:22:56.783Z,97.63
2022-12-23T14:25:05.795Z,72.75
2022-12-23T14:27:12.121Z,55.10
2022-12-23T14:29:33.124Z,53.25
2022-12-23T14:31:41.460Z,81.88
2022-12-23T14:33:31.385Z,113.30
2022-12-23T14:35:40.264Z,62.38
2022-12-23T14:37:35.561Z,56.17
2022-12-23T14:39:34.031Z,54.38
2022-12-23T14:41:25.759Z,56.10
2022-12-23T14:43:22.762Z,115.32
2022-12-23T14:45:41.638Z,118.30
2022-12-23T14:47:32.030Z,68.47
2022-12-23T14:49:40.892Z,52.83
2022-12-23T14:51:37.822Z,48.88
2022-12-23T14:53:35.721Z,57.00
2022-12-23T14:55:30.738Z,172.27
2022-12-23T14:57:22.723Z,90.88
2022-12-23T14:59:17.595Z,143.07
2022-12-23T15:01:16.810Z,109.65
2022-12-23T15:03:04.479Z,80.68
2022-12-23T15:04:55.889Z,73.00
2022-12-23T15:06:47.571Z,89.35
2022-12-23T15:08:42.119Z,65.82
2022-12-23T15:10:29.805Z,62.95
2022-12-23T15:14:30.043Z,58.13
2022-12-23T15:16:18.054Z,63.60
2022-12-23T15:18:14.761Z,65.78
2022-12-23T15:20:11.620Z,74.30
2022-12-23T15:22:19.854Z,79.63
2022-12-23T15:24:20.328Z,76.43
2022-12-23T15:26:09.579Z,66.78
2022-12-23T15:28:01.853Z,75.60
2022-12-23T15:29:52.805Z,74.72
2022-12-23T15:31:42.530Z,70.78
2022-12-23T15:34:02.222Z,71.95
2022-12-23T15:35:43.009Z,69.30
2022-12-23T15:37:31.655Z,66.40
2022-12-23T15:39:36.715Z,74.18
2022-12-23T15:41:24.867Z,68.25
2022-12-23T15:43:24.953Z,95.50
2022-12-23T15:45:41.420Z,99.55
2022-12-23T15:47:31.717Z,114.55
2022-12-23T15:49:21.927Z,103.95
2022-12-23T15:51:30.520Z,74.47
2022-12-23T15:53:34.759Z,60.63
2022-12-23T15:55:31.321Z,74.82
2022-12-23T15:57:21.915Z,57.15
2022-12-23T15:59:22.810Z,100.03
2022-12-23T16:01:15.792Z,75.80
2022-12-23T16:03:06.544Z,75.95
2022-12-23T16:05:00.679Z,57.50
2022-12-23T16:06:51.693Z,113.03
2022-12-23T16:08:40.194Z,97.30
2022-12-23T16:10:28.107Z,92.50
2022-12-23T16:12:27.202Z,67.40
2022-12-23T16:14:24.944Z,69.68
2022-12-23T16:16:20.068Z,84.90
2022-12-23T16:18:31.729Z,82.85
2022-12-23T16:20:21.768Z,88.00
2022-12-23T16:22:15.380Z,85.07
2022-12-23T16:24:07.982Z,77.70
2022-12-23T16:25:55.273Z,76.22
2022-12-23T16:27:56.527Z,61.55
2022-12-23T16:29:45.720Z,67.63
2022-12-23T16:31:32.950Z,69.53
2022-12-23T16:33:37.963Z,63.17
2022-12-23T16:35:38.789Z,67.38
2022-12-23T16:37:25.920Z,57.75
2022-12-23T16:39:23.503Z,59.70
2022-12-23T16:41:11.341Z,68.40
2022-12-23T16:46:37.679Z,61.72
2022-12-23T16:48:47.920Z,85.30
2022-12-23T16:50:36.530Z,84.07
2022-12-23T16:52:24.768Z,72.70
2022-12-23T16:54:18.505Z,77.55
2022-12-23T16:56:14.187Z,79.75
2022-12-23T16:58:01.727Z,74.43
2022-12-23T16:59:50.204Z,80.88
2022-12-23T17:01:40.906Z,93.13
2022-12-23T17:03:29.045Z,126.18
2022-12-23T17:05:21.543Z,134.02
2022-12-23T17:07:12.603Z,116.80
2022-12-23T17:09:00.132Z,93.35
2022-12-23T17:10:47.570Z,109.18
2022-12-23T17:12:35.461Z,117.45
2022-12-23T17:14:25.527Z,106.07
2022-12-23T17:16:20.032Z,94.82
2022-12-23T17:18:13.818Z,83.22
2022-12-23T17:20:01.884Z,79.18
2022-12-23T17:23:46.902Z,75.38
2022-12-23T17:25:36.138Z,80.82
2022-12-23T17:27:25.215Z,79.78
2022-12-23T17:29:13.381Z,76.18
2022-12-23T17:31:01.519Z,71.15
2022-12-23T17:33:00.346Z,65.97
2022-12-23T17:34:48.750Z,72.63
2022-12-23T17:36:36.233Z,88.97
2022-12-23T17:38:25.832Z,82.82
2022-12-23T17:40:16.474Z,81.28
2022-12-23T17:43:52.055Z,77.25
2022-12-23T17:45:41.386Z,100.20
2022-12-23T17:47:29.288Z,90.93
2022-12-23T17:49:17.059Z,84.80
2022-12-23T17:51:22.214Z,82.00
2022-12-23T17:53:18.125Z,83.57
2022-12-23T17:55:11.083Z,74.43
2022-12-23T17:56:58.850Z,85.25
2022-12-23T17:58:49.463Z,77.55
2022-12-23T18:00:39.722Z,78.97
2022-12-23T18:02:33.246Z,90.95
2022-12-23T18:04:20.662Z,95.75
2022-12-23T18:06:14.486Z,95.95
2022-12-23T18:08:03.518Z,116.93
2022-12-23T18:09:53.827Z,158.82
2022-12-23T18:11:44.643Z,219.63
2022-12-23T18:13:32.478Z,274.40
2022-12-23T18:15:47.887Z,193.32
2022-12-23T18:17:35.740Z,151.82
2022-12-23T18:19:23.263Z,124.47
2022-12-23T18:21:20.312Z,154.75
2022-12-23T18:23:19.027Z,152.48
2022-12-23T18:25:07.023Z,141.13
2022-12-23T18:28:43.478Z,124.07
2022-12-23T18:30:30.846Z,142.85
2022-12-23T18:32:27.426Z,133.18
2022-12-23T18:34:18.059Z,123.95
2022-12-23T18:36:05.657Z,121.95
2022-12-23T18:37:56.379Z,115.50
2022-12-23T18:39:45.154Z,127.22
2022-12-23T18:41:32.745Z,121.07
2022-12-23T18:43:22.189Z,127.38
2022-12-23T18:45:37.781Z,131.43
2022-12-23T18:47:25.318Z,142.85
2022-12-23T18:49:13.123Z,139.02
2022-12-23T18:51:00.947Z,142.95
2022-12-23T18:52:48.538Z,144.82
2022-12-23T18:54:35.990Z,146.43
2022-12-23T18:58:13.322Z,129.88
2022-12-23T19:00:00.528Z,137.65
2022-12-23T19:01:47.942Z,133.95
2022-12-23T19:03:35.118Z,147.15
2022-12-23T19:05:28.621Z,139.38
2022-12-23T19:07:16.507Z,133.88
2022-12-23T19:09:04.029Z,137.65
2022-12-23T19:10:52.301Z,147.07
2022-12-23T19:12:39.703Z,149.50
2022-12-23T19:14:26.921Z,162.20
2022-12-23T19:16:20.576Z,154.68
2022-12-23T19:18:12.232Z,180.90
2022-12-23T19:19:59.527Z,175.13
2022-12-23T19:21:46.993Z,189.15
2022-12-23T19:23:34.370Z,160.00
2022-12-23T19:25:21.611Z,153.15
2022-12-23T19:27:08.835Z,130.02
2022-12-23T19:28:56.424Z,125.63
2022-12-23T19:30:43.565Z,112.20
2022-12-23T19:32:31.148Z,117.53
2022-12-23T19:34:18.668Z,118.43
2022-12-23T19:36:10.245Z,120.47
2022-12-23T19:37:57.639Z,110.60
2022-12-23T19:39:45.347Z,115.40
2022-12-23T19:41:32.778Z,123.20
2022-12-23T19:43:20.280Z,101.20
2022-12-23T19:45:09.925Z,101.18
2022-12-23T19:46:58.084Z,99.03
2022-12-23T19:48:51.780Z,103.53
2022-12-23T19:50:39.392Z,90.03
2022-12-23T19:52:26.937Z,91.68
2022-12-23T19:54:14.491Z,112.20
2022-12-23T19:57:52.269Z,110.03
2022-12-23T19:59:39.518Z,105.28
2022-12-23T20:01:27.505Z,107.03
2022-12-23T20:03:14.804Z,105.53
2022-12-23T20:05:02.188Z,106.47
2022-12-23T20:06:49.751Z,119.00
2022-12-23T20:08:37.106Z,129.18
2022-12-23T20:10:24.396Z,108.10
2022-12-23T20:12:12.034Z,96.43
2022-12-23T20:14:00.918Z,100.63
2022-12-23T20:15:48.318Z,98.78
2022-12-23T20:17:37.651Z,92.40
2022-12-23T20:19:24.942Z,98.32
2022-12-23T20:21:12.403Z,87.95
2022-12-23T20:23:00.040Z,102.32
2022-12-23T20:24:47.453Z,102.50
2022-12-23T20:26:35.297Z,115.88
2022-12-23T20:30:15.535Z,145.63
2022-12-23T20:32:02.892Z,138.50
2022-12-23T20:33:52.268Z,130.77
2022-12-23T20:35:39.711Z,162.88
2022-12-23T20:37:27.289Z,154.35
2022-12-23T20:39:15.259Z,144.80
2022-12-23T20:41:05.622Z,195.70
2022-12-23T20:42:53.787Z,229.90
2022-12-23T20:44:41.810Z,220.30
2022-12-23T20:46:29.693Z,226.27
2022-12-23T20:48:18.371Z,227.35
2022-12-23T20:50:06.807Z,214.07
2022-12-23T20:51:54.199Z,198.02
2022-12-23T20:53:42.315Z,210.02
2022-12-23T20:55:31.536Z,188.00
2022-12-23T20:57:19.106Z,195.25
2022-12-23T20:59:06.472Z,199.95
2022-12-23T21:00:53.984Z,217.73
2022-12-23T21:02:42.064Z,235.88
2022-12-23T21:06:17.432Z,197.68
2022-12-23T21:08:05.321Z,195.40
2022-12-23T21:09:53.426Z,177.15
2022-12-23T21:13:30.827Z,158.43
2022-12-23T21:15:18.227Z,145.50
2022-12-23T21:17:06.653Z,100.30
2022-12-23T21:18:53.999Z,138.57
2022-12-23T21:20:41.591Z,172.38
2022-12-23T21:22:29.053Z,183.93
2022-12-23T21:24:16.842Z,184.82
2022-12-23T21:26:27.959Z,184.07
2022-12-23T21:28:15.938Z,172.20
2022-12-23T21:30:03.942Z,164.73
2022-12-23T21:31:52.402Z,217.68
2022-12-23T21:33:42.188Z,208.18
2022-12-23T21:35:29.832Z,254.90
2022-12-23T21:37:17.023Z,309.30
2022-12-23T21:39:07.338Z,322.38
2022-12-23T21:41:00.558Z,256.23
2022-12-23T21:42:47.813Z,453.75
2022-12-23T21:44:36.669Z,478.35
2022-12-23T21:46:25.172Z,473.98
2022-12-23T21:48:12.483Z,389.83
2022-12-23T21:50:00.337Z,297.83
2022-12-23T21:51:48.031Z,275.75
2022-12-23T21:53:36.280Z,258.73
2022-12-23T21:55:24.434Z,260.25
2022-12-23T21:59:01.198Z,229.77
2022-12-23T22:00:48.831Z,227.30
2022-12-23T22:02:36.277Z,217.77
2022-12-23T22:04:25.053Z,218.85
2022-12-23T22:06:26.651Z,214.73
2022-12-23T22:08:14.203Z,202.95
2022-12-23T22:10:01.665Z,201.43
2022-12-23T22:11:49.803Z,199.00
2022-12-23T22:15:25.218Z,185.05
2022-12-23T22:19:02.027Z,189.82
2022-12-23T22:20:49.357Z,172.63
2022-12-23T22:22:37.540Z,197.15
2022-12-23T22:26:22.113Z,188.93
2022-12-23T22:28:12.466Z,174.07
2022-12-23T22:30:00.227Z,167.52
2022-12-23T22:31:50.699Z,188.15
2022-12-23T22:33:38.368Z,163.85
2022-12-23T22:35:27.981Z,150.52
2022-12-23T22:37:15.304Z,139.60
2022-12-23T22:39:03.967Z,122.45
2022-12-23T22:40:52.427Z,119.30
2022-12-23T22:42:39.660Z,126.38
2022-12-23T22:44:27.217Z,131.45
2022-12-23T22:46:15.534Z,112.45
2022-12-23T22:48:02.965Z,107.22
2022-12-23T22:49:50.434Z,115.78
2022-12-23T22:51:40.661Z,107.70
2022-12-23T22:53:29.825Z,118.75
2022-12-23T22:55:17.618Z,116.18
2022-12-23T22:57:05.823Z,134.45
2022-12-23T22:58:55.435Z,152.52
2022-12-23T23:00:43.299Z,186.55
2022-12-23T23:02:30.658Z,208.18
2022-12-23T23:04:18.696Z,204.32
2022-12-23T23:06:07.319Z,197.20
2022-12-23T23:07:54.554Z,293.30
2022-12-23T23:09:42.127Z,318.83
2022-12-23T23:11:29.899Z,270.90
2022-12-23T23:13:17.306Z,270.25
2022-12-23T23:15:04.858Z,275.85
2022-12-23T23:16:52.442Z,296.05
2022-12-23T23:18:39.755Z,242.52
2022-12-23T23:20:27.301Z,336.55
2022-12-23T23:22:15.734Z,316.70
2022-12-23T23:24:03.825Z,296.30
2022-12-23T23:27:38.974Z,277.20
2022-12-23T23:29:26.267Z,260.42
2022-12-23T23:33:21.193Z,321.67
2022-12-23T23:35:10.855Z,296.63
2022-12-23T23:36:58.627Z,367.58
2022-12-23T23:38:46.320Z,239.35
2022-12-23T23:40:33.416Z,275.55
2022-12-23T23:42:20.674Z,269.35
2022-12-23T23:44:08.498Z,396.30
2022-12-23T23:45:56.001Z,228.13
2022-12-23T23:47:43.226Z,504.52
2022-12-23T23:49:30.723Z,212.50
2022-12-23T23:51:17.805Z,422.25
2022-12-23T23:53:05.742Z,261.00
2022-12-23T23:56:41.308Z,237.48
2022-12-23T23:58:28.848Z,284.55
